createdAt,value
2022-10-17T00:04:20.275Z,19.40
2022-10-17T00:09:23.271Z,17.30
2022-10-17T00:14:26.200Z,17.10
2022-10-17T00:19:29.102Z,18.80
2022-10-17T00:24:32.043Z,20.00
2022-10-17T00:29:34.991Z,18.20
2022-10-17T00:34:37.905Z,18.30
2022-10-17T00:39:40.800Z,19.50
2022-10-17T00:44:47.095Z,17.50
2022-10-17T00:49:50.533Z,18.90
2022-10-17T01:00:32.787Z,20.30
2022-10-17T01:05:37.113Z,19.00
2022-10-17T01:11:02.627Z,19.00
2022-10-17T01:16:52.310Z,19.60
2022-10-17T01:22:04.077Z,20.10
2022-10-17T01:27:35.307Z,19.10
2022-10-17T01:32:57.863Z,20.40
2022-10-17T01:38:14.786Z,22.10
2022-10-17T01:43:30.126Z,21.20
2022-10-17T01:48:38.768Z,21.90
2022-10-17T01:54:06.919Z,20.50
2022-10-17T01:59:17.443Z,19.60
2022-10-17T02:04:20.609Z,22.50
2022-10-17T02:09:26.524Z,21.50
2022-10-17T02:14:45.060Z,22.70
2022-10-17T02:20:20.033Z,21.50
2022-10-17T02:26:04.903Z,20.20
2022-10-17T02:31:22.736Z,19.90
2022-10-17T02:36:46.123Z,21.10
2022-10-17T02:41:52.540Z,20.60
2022-10-17T02:47:16.147Z,22.50
2022-10-17T02:52:31.253Z,21.00
2022-10-17T02:57:41.061Z,21.10
2022-10-17T03:02:48.509Z,20.00
2022-10-17T03:07:52.372Z,20.20
2022-10-17T03:12:55.982Z,21.20
2022-10-17T03:17:58.886Z,21.10
2022-10-17T03:23:02.101Z,21.20
2022-10-17T03:28:05.688Z,21.80
2022-10-17T03:33:08.591Z,21.50
2022-10-17T03:38:11.463Z,21.90
2022-10-17T03:43:14.353Z,21.70
2022-10-17T03:48:17.229Z,22.10
2022-10-17T03:53:20.177Z,22.60
2022-10-17T03:58:23.305Z,22.80
2022-10-17T04:03:26.230Z,22.80
2022-10-17T04:08:29.981Z,22.60
2022-10-17T04:13:33.981Z,19.60
2022-10-17T04:18:36.924Z,20.20
2022-10-17T04:23:40.244Z,21.50
2022-10-17T04:28:43.138Z,21.00
2022-10-17T04:33:50.864Z,19.90
2022-10-17T04:38:54.013Z,21.60
2022-10-17T04:43:56.897Z,22.00
2022-10-17T04:48:59.797Z,20.30
2022-10-17T04:54:02.722Z,21.20
2022-10-17T04:59:05.688Z,24.30
2022-10-17T05:04:08.596Z,25.30
2022-10-17T05:09:11.502Z,27.10
2022-10-17T05:14:15.575Z,25.30
2022-10-17T05:19:18.667Z,23.00
2022-10-17T05:24:21.847Z,26.30
2022-10-17T05:29:24.754Z,23.50
2022-10-17T05:34:27.716Z,22.30
2022-10-17T05:39:30.633Z,24.40
2022-10-17T05:44:33.702Z,24.60
2022-10-17T05:49:52.626Z,31.70
2022-10-17T05:54:55.657Z,40.40
2022-10-17T05:59:58.566Z,25.00
2022-10-17T06:05:01.512Z,22.90
2022-10-17T06:10:04.981Z,22.50
2022-10-17T07:29:11.749Z,28.10
2022-10-17T07:34:14.792Z,26.10
2022-10-17T07:39:17.812Z,24.20
2022-10-17T07:44:21.060Z,25.40
2022-10-17T07:49:24.034Z,25.40
2022-10-17T07:54:26.935Z,32.80
2022-10-17T07:59:29.843Z,27.40
2022-10-17T08:04:34.777Z,18.60
2022-10-17T08:09:37.804Z,19.60
2022-10-17T08:14:42.538Z,19.40
2022-10-17T08:19:45.431Z,21.50
2022-10-17T08:24:48.343Z,19.80
2022-10-17T08:29:54.825Z,21.50
2022-10-17T08:34:57.748Z,20.70
2022-10-17T08:40:00.681Z,20.40
2022-10-17T08:45:17.057Z,18.60
2022-10-17T08:50:36.833Z,17.10
2022-10-17T08:55:51.680Z,21.30
2022-10-17T09:01:24.233Z,19.70
2022-10-17T09:06:45.211Z,18.80
2022-10-17T09:12:24.783Z,19.30
2022-10-17T09:17:54.944Z,19.50
2022-10-17T09:23:11.865Z,18.30
2022-10-17T09:28:31.300Z,19.10
2022-10-17T09:33:54.234Z,19.70
2022-10-17T09:39:02.002Z,18.60
2022-10-17T09:44:23.052Z,18.00
2022-10-17T09:49:39.473Z,18.60
2022-10-17T09:55:15.446Z,17.50
2022-10-17T10:00:28.038Z,16.80
2022-10-17T10:10:34.278Z,16.70
2022-10-17T10:15:46.602Z,16.00
2022-10-17T10:21:04.467Z,15.70
2022-10-17T10:26:25.933Z,14.20
2022-10-17T10:31:37.083Z,16.40
2022-10-17T10:36:52.918Z,15.70
2022-10-17T10:41:56.007Z,16.80
2022-10-17T10:47:22.740Z,14.70
2022-10-17T10:53:07.930Z,14.10
2022-10-17T10:58:48.670Z,14.80
2022-10-17T11:04:49.212Z,14.60
2022-10-17T11:10:47.738Z,14.50
2022-10-17T11:16:18.070Z,14.80
2022-10-17T11:21:48.604Z,13.40
2022-10-17T11:27:06.645Z,13.20
2022-10-17T11:32:25.089Z,13.60
2022-10-17T11:37:34.674Z,13.30
2022-10-17T11:43:20.263Z,14.10
2022-10-17T11:48:39.147Z,12.50
2022-10-17T11:53:51.219Z,12.70
2022-10-17T12:58:28.476Z,11.10
2022-10-17T13:03:44.348Z,10.80
2022-10-17T13:09:03.577Z,10.80
2022-10-17T13:14:14.757Z,10.60
2022-10-17T13:19:25.462Z,10.30
2022-10-17T13:24:33.049Z,10.40
2022-10-17T13:29:44.475Z,10.80
2022-10-17T13:35:04.392Z,9.80
2022-10-17T13:46:25.383Z,9.90
2022-10-17T13:51:28.703Z,9.90
2022-10-17T14:01:38.325Z,9.40
2022-10-17T14:06:51.134Z,9.20
2022-10-17T14:12:08.638Z,10.30
2022-10-17T14:17:30.897Z,10.10
2022-10-17T14:22:38.562Z,10.40
2022-10-17T14:28:14.137Z,11.00
2022-10-17T14:33:26.341Z,11.10
2022-10-17T14:38:30.621Z,10.90
2022-10-17T14:43:33.556Z,12.00
2022-10-17T14:48:36.656Z,11.90
2022-10-17T14:54:21.562Z,11.40
2022-10-17T14:59:52.194Z,11.70
2022-10-17T15:04:48.906Z,11.90
2022-10-17T15:09:54.131Z,11.50
2022-10-17T15:14:57.354Z,10.90
2022-10-17T15:25:04.017Z,11.40
2022-10-17T15:30:29.227Z,12.80
2022-10-17T15:35:32.248Z,12.70
2022-10-17T15:40:35.186Z,13.20
2022-10-17T15:45:38.139Z,12.50
2022-10-17T15:50:41.049Z,13.30
2022-10-17T15:55:44.030Z,12.90
2022-10-17T16:00:48.007Z,16.10
2022-10-17T16:05:50.940Z,31.80
2022-10-17T16:10:54.077Z,14.10
2022-10-17T16:15:57.922Z,13.00
2022-10-17T16:21:04.137Z,15.70
2022-10-17T16:26:08.278Z,14.10
2022-10-17T16:31:24.017Z,16.90
2022-10-17T16:36:27.001Z,15.30
2022-10-17T16:41:33.971Z,15.40
2022-10-17T16:46:38.257Z,15.20
2022-10-17T16:51:41.166Z,15.50
2022-10-17T16:56:44.107Z,16.80
2022-10-17T17:01:47.003Z,16.80
2022-10-17T17:06:50.000Z,18.00
2022-10-17T17:11:52.917Z,20.70
2022-10-17T17:16:55.869Z,19.00
2022-10-17T17:21:58.809Z,25.40
2022-10-17T17:27:01.910Z,36.70
2022-10-17T17:32:05.092Z,36.70
2022-10-17T17:37:08.035Z,32.30
2022-10-17T17:42:10.965Z,27.50
2022-10-17T17:47:13.881Z,25.70
2022-10-17T17:52:16.939Z,24.00
2022-10-17T17:57:19.840Z,26.80
2022-10-17T18:02:22.758Z,23.00
2022-10-17T18:07:25.702Z,22.70
2022-10-17T18:12:30.455Z,19.70
2022-10-17T18:17:34.644Z,18.20
2022-10-17T18:22:37.544Z,18.90
2022-10-17T18:27:40.447Z,20.00
2022-10-17T18:32:43.405Z,20.30
2022-10-17T18:37:46.409Z,20.30
2022-10-17T18:42:49.330Z,21.50
2022-10-17T18:47:54.887Z,21.00
2022-10-17T18:52:57.780Z,20.90
2022-10-17T18:58:00.783Z,21.80
2022-10-17T19:03:05.020Z,21.40
2022-10-17T19:08:07.973Z,22.70
2022-10-17T19:13:11.934Z,22.40
2022-10-17T19:18:14.897Z,27.00
2022-10-17T19:23:17.791Z,27.40
2022-10-17T19:28:20.710Z,25.50
2022-10-17T19:33:23.992Z,22.90
2022-10-17T19:43:29.858Z,25.10
2022-10-17T19:48:35.535Z,26.20
2022-10-17T19:53:39.010Z,27.80
2022-10-17T19:58:45.641Z,28.00
2022-10-17T20:03:49.515Z,27.30
2022-10-17T20:08:53.601Z,25.60
2022-10-17T20:13:57.554Z,24.90
2022-10-17T20:19:12.788Z,23.10
2022-10-17T20:24:17.188Z,21.00
2022-10-17T20:29:21.543Z,20.40
2022-10-17T20:34:25.091Z,21.40
2022-10-17T20:39:28.553Z,21.30
2022-10-17T20:44:31.582Z,21.80
2022-10-17T20:49:34.603Z,22.00
2022-10-17T20:54:37.768Z,20.30
2022-10-17T20:59:40.793Z,19.70
2022-10-17T21:04:46.767Z,20.20
2022-10-17T21:09:50.036Z,19.70
2022-10-17T21:14:52.956Z,19.90
2022-10-17T21:19:56.125Z,20.60
2022-10-17T21:24:59.056Z,20.20
2022-10-17T21:30:02.539Z,20.20
2022-10-17T21:35:06.316Z,19.60
2022-10-17T21:40:10.278Z,19.60
2022-10-17T21:45:15.699Z,20.30
2022-10-17T21:50:19.065Z,19.00
2022-10-17T21:55:21.937Z,20.90
2022-10-17T22:00:24.942Z,20.30
2022-10-17T22:05:27.905Z,20.80
2022-10-17T22:10:30.946Z,20.20
2022-10-17T22:15:33.937Z,21.80
2022-10-17T22:20:36.963Z,21.50
2022-10-17T22:25:39.863Z,21.00
2022-10-17T22:30:42.794Z,19.20
2022-10-17T22:35:46.590Z,21.60
2022-10-17T22:40:49.499Z,21.90
2022-10-17T22:45:58.296Z,22.30
2022-10-17T22:51:02.558Z,21.50
2022-10-17T22:56:10.818Z,21.10
2022-10-17T23:01:18.068Z,22.60
2022-10-17T23:06:21.650Z,21.90
2022-10-17T23:11:24.708Z,22.00
2022-10-17T23:16:27.670Z,23.20
2022-10-17T23:21:30.571Z,23.70
2022-10-17T23:26:33.508Z,22.30
2022-10-17T23:31:36.472Z,22.30
2022-10-17T23:36:39.508Z,22.40
2022-10-17T23:41:42.437Z,21.60
2022-10-17T23:46:45.372Z,22.30
2022-10-17T23:51:48.283Z,21.70
2022-10-17T23:56:51.198Z,40.10
